Latest Weather Observations for Banana Bank

IDQ60901

Issued at 5:11 am EST Tuesday 24 April 2018 (issued every 10 minutes, with the page automatically refreshed every 10 minutes)

About weather observations | Map of Brisbane area stations | Latest observations for Brisbane area | Other Formats
Station Details ID: 040925 Name: BANANA BANK NORTH BEACON Lat: -27.53 Lon: 153.33 Height: 7.0 m
Data from the previous 72 hours. | See also: Recent months for locations in Queensland
Date/Time
EST
Temp
°C
App
Temp
°C
Dew
Point
°C
Rel
Hum
%
Delta-T
°C
Wind Press
QNH
hPa
Press
MSL
hPa
Rain since
9am
mm
Dir  Spd
km/h
Gust
km/h
Spd
kts
Gust
kts
24/05:00am - - - - - SW 13 15 7 8 - - -
24/04:30am - - - - - SW 11 13 6 7 - - -
24/04:00am - - - - - SW 13 15 7 8 - - -
24/03:30am - - - - - SSW 13 17 7 9 - - -
24/03:00am - - - - - SSW 11 15 6 8 - - -
24/02:30am - - - - - SW 11 13 6 7 - - -
24/02:00am - - - - - SW 13 15 7 8 - - -
24/01:30am - - - - - SSW 11 13 6 7 - - -
24/01:00am - - - - - SW 11 13 6 7 - - -
24/12:30am - - - - - SW 11 13 6 7 - - -
24/12:00am - - - - - WSW 9 13 5 7 - - -
 
Date/Time
EST
Temp
°C
App
Temp
°C
Dew
Point
°C
Rel
Hum
%
Delta-T
°C
Wind Press
QNH
hPa
Press
MSL
hPa
Rain since
9am
mm
Dir  Spd
km/h
Gust
km/h
Spd
kts
Gust
kts
23/11:30pm - - - - - SW 13 15 7 8 - - -
23/11:00pm - - - - - SSW 17 19 9 10 - - -
23/10:30pm - - - - - S 15 20 8 11 - - -
23/10:00pm - - - - - SSW 15 17 8 9 - - -
23/09:30pm - - - - - S 15 20 8 11 - - -
23/09:00pm - - - - - S 20 24 11 13 - - -
23/08:30pm - - - - - S 22 28 12 15 - - -
23/08:00pm - - - - - S 24 30 13 16 - - -
23/07:30pm - - - - - SSE 24 30 13 16 - - -
23/07:00pm - - - - - SSE 26 32 14 17 - - -
23/06:30pm - - - - - SSE 24 30 13 16 - - -
23/06:00pm - - - - - SSE 26 30 14 16 - - -
23/05:30pm - - - - - SSE 30 35 16 19 - - -
23/05:00pm - - - - - SSE 30 35 16 19 - - -
23/04:30pm - - - - - SSE 26 33 14 18 - - -
23/04:00pm - - - - - SSE 24 32 13 17 - - -
23/03:30pm - - - - - SSE 26 33 14 18 - - -
23/03:00pm - - - - - SE 30 35 16 19 - - -
23/02:30pm - - - - - SSE 32 39 17 21 - - -
23/02:00pm - - - - - SSE 30 35 16 19 - - -
23/01:30pm - - - - - SE 28 35 15 19 - - -
23/01:00pm - - - - - SSE 19 24 10 13 - - -
23/12:30pm - - - - - SSE 20 26 11 14 - - -
23/12:00pm - - - - - SSE 24 32 13 17 - - -
23/11:30am - - - - - SE 20 24 11 13 - - -
23/11:00am - - - - - S 17 24 9 13 - - -
23/10:30am - - - - - SSW 17 22 9 12 - - -
23/10:00am - - - - - SSW 11 15 6 8 - - -
23/09:30am - - - - - SSW 11 13 6 7 - - -
23/09:00am - - - - - SSW 13 17 7 9 - - -
23/08:30am - - - - - SSW 15 19 8 10 - - -
23/08:00am - - - - - SW 15 17 8 9 - - -
23/07:30am - - - - - S 11 15 6 8 - - -
23/07:00am - - - - - SW 13 17 7 9 - - -
23/06:30am - - - - - SW 17 19 9 10 - - -
23/06:00am - - - - - SW 19 22 10 12 - - -
23/05:30am - - - - - SW 15 17 8 9 - - -
23/05:00am - - - - - SW 17 20 9 11 - - -
23/04:30am - - - - - SSW 19 22 10 12 - - -
23/04:00am - - - - - SSW 17 20 9 11 - - -
23/03:30am - - - - - SW 17 19 9 10 - - -
23/03:00am - - - - - SW 19 20 10 11 - - -
23/02:30am - - - - - SSW 17 19 9 10 - - -
23/02:00am - - - - - SSW 19 20 10 11 - - -
23/01:30am - - - - - SW 15 17 8 9 - - -
23/01:00am - - - - - SSW 15 19 8 10 - - -
23/12:30am - - - - - SSW 19 22 10 12 - - -
23/12:00am - - - - - S 20 26 11 14 - - -
 
Date/Time
EST
Temp
°C
App
Temp
°C
Dew
Point
°C
Rel
Hum
%
Delta-T
°C
Wind Press
QNH
hPa
Press
MSL
hPa
Rain since
9am
mm
Dir  Spd
km/h
Gust
km/h
Spd
kts
Gust
kts
22/11:30pm - - - - - S 24 28 13 15 - - -
22/11:00pm - - - - - S 20 24 11 13 - - -
22/10:30pm - - - - - SSW 19 22 10 12 - - -
22/10:00pm - - - - - S 17 20 9 11 - - -
22/09:30pm - - - - - S 17 22 9 12 - - -
22/09:00pm - - - - - S 19 22 10 12 - - -
22/08:30pm - - - - - S 20 24 11 13 - - -
22/08:00pm - - - - - S 22 28 12 15 - - -
22/07:30pm - - - - - S 20 26 11 14 - - -
22/07:00pm - - - - - S 22 26 12 14 - - -
22/06:30pm - - - - - SSE 28 33 15 18 - - -
22/06:00pm - - - - - S 26 33 14 18 - - -
22/05:30pm - - - - - SSE 26 32 14 17 - - -
22/05:00pm - - - - - SSE 28 33 15 18 - - -
22/04:30pm - - - - - SSE 26 32 14 17 - - -
22/04:00pm - - - - - SSE 28 32 15 17 - - -
22/03:30pm - - - - - SSE 28 35 15 19 - - -
22/03:00pm - - - - - SSE 30 37 16 20 - - -
22/02:30pm - - - - - SSE 32 39 17 21 - - -
22/02:00pm - - - - - SSE 32 39 17 21 - - -
22/01:30pm - - - - - SE 33 43 18 23 - - -
22/01:00pm - - - - - SSE 37 44 20 24 - - -
22/12:30pm - - - - - SSE 33 41 18 22 - - -
22/12:00pm - - - - - SSE 35 43 19 23 - - -
22/11:30am - - - - - SSE 41 54 22 29 - - -
22/11:00am - - - - - SSE 33 39 18 21 - - -
22/10:30am - - - - - S 35 46 19 25 - - -
22/10:00am - - - - - S 37 46 20 25 - - -
22/09:30am - - - - - S 37 46 20 25 - - -
22/09:00am - - - - - S 30 35 16 19 - - -
22/08:30am - - - - - S 26 32 14 17 - - -
22/08:00am - - - - - S 20 26 11 14 - - -
22/07:30am - - - - - SSW 17 22 9 12 - - -
22/07:00am - - - - - SSW 11 15 6 8 - - -
22/06:30am - - - - - SW 15 17 8 9 - - -
22/06:00am - - - - - SSW 15 19 8 10 - - -
22/05:30am - - - - - SSW 13 15 7 8 - - -
22/05:00am - - - - - SSW 15 17 8 9 - - -
22/04:30am - - - - - SW 17 19 9 10 - - -
22/04:00am - - - - - SW 17 19 9 10 - - -
22/03:30am - - - - - SW 17 20 9 11 - - -
22/03:00am - - - - - SSW 20 24 11 13 - - -
22/02:30am - - - - - SSW 20 24 11 13 - - -
22/02:00am - - - - - SW 17 20 9 11 - - -
22/01:30am - - - - - SSW 17 19 9 10 - - -
22/01:00am - - - - - SW 17 20 9 11 - - -
22/12:30am - - - - - SSW 19 26 10 14 - - -
22/12:00am - - - - - SSW 20 24 11 13 - - -
 
Date/Time
EST
Temp
°C
App
Temp
°C
Dew
Point
°C
Rel
Hum
%
Delta-T
°C
Wind Press
QNH
hPa
Press
MSL
hPa
Rain since
9am
mm
Dir  Spd
km/h
Gust
km/h
Spd
kts
Gust
kts
21/11:30pm - - - - - SSW 20 24 11 13 - - -
21/11:00pm - - - - - SSW 17 19 9 10 - - -
21/10:30pm - - - - - SSW 19 24 10 13 - - -
21/10:00pm - - - - - SSW 22 26 12 14 - - -
21/09:30pm - - - - - SSW 20 24 11 13 - - -
21/09:00pm - - - - - S 19 22 10 12 - - -
21/08:30pm - - - - - S 22 28 12 15 - - -
21/08:00pm - - - - - SSE 22 26 12 14 - - -
21/07:30pm - - - - - SSE 26 30 14 16 - - -
21/07:00pm - - - - - SSE 28 33 15 18 - - -
21/06:30pm - - - - - SSE 39 56 21 30 - - -
21/06:19pm - - - - - S 35 67 19 36 - - -
21/06:14pm - - - - - S 28 44 15 24 - - -
21/06:00pm - - - - - S 19 22 10 12 - - -
21/05:30pm - - - - - SSE 22 26 12 14 - - -
21/05:00pm - - - - - SSE 24 28 13 15 - - -
21/04:30pm - - - - - SSE 32 43 17 23 - - -
21/04:00pm - - - - - SSE 32 39 17 21 - - -
21/03:30pm - - - - - SSE 28 35 15 19 - - -
21/03:00pm - - - - - ESE 30 41 16 22 - - -
21/02:58pm - - - - - SE 32 41 17 22 - - -
21/02:30pm - - - - - SE 37 48 20 26 - - -
21/02:00pm - - - - - SE 32 37 17 20 - - -
21/01:30pm - - - - - SE 32 37 17 20 - - -
21/01:00pm - - - - - SE 32 37 17 20 - - -
21/12:30pm - - - - - SE 30 39 16 21 - - -
21/12:00pm - - - - - SE 26 32 14 17 - - -
21/11:30am - - - - - SE 28 33 15 18 - - -
21/11:00am - - - - - SSE 24 30 13 16 - - -
21/10:30am - - - - - SSE 22 30 12 16 - - -
21/10:00am - - - - - S 20 28 11 15 - - -
21/09:30am - - - - - S 19 20 10 11 - - -
21/09:00am - - - - - S 19 22 10 12 - - -
21/08:30am - - - - - SSW 20 24 11 13 - - -
21/08:00am - - - - - SSW 17 19 9 10 - - -
21/07:30am - - - - - S 11 13 6 7 - - -
21/07:00am - - - - - S 15 20 8 11 - - -
21/06:30am - - - - - S 13 19 7 10 - - -
21/06:00am - - - - - S 17 19 9 10 - - -
21/05:30am - - - - - SSW 13 17 7 9 - - -

Latest Capital City Observations: Canberra | Sydney | Melbourne | Brisbane | Adelaide | Perth | Hobart | Darwin

Other Formats:

Comma delimited format used in spreadsheet applications
http://www.bom.gov.au/fwo/IDQ60901/IDQ60901.94591.axf

JavaScript Object Notation format (JSON) in row-major order
http://www.bom.gov.au/fwo/IDQ60901/IDQ60901.94591.json